createdAt,value
2022-12-24T00:01:44.571Z,100.00
2022-12-24T00:04:11.151Z,100.00
2022-12-24T00:06:37.658Z,100.00
2022-12-24T00:09:04.415Z,100.00
2022-12-24T00:11:30.911Z,100.00
2022-12-24T00:13:57.422Z,100.00
2022-12-24T00:16:24.178Z,100.00
2022-12-24T00:18:50.714Z,100.00
2022-12-24T00:21:17.335Z,100.00
2022-12-24T00:23:44.176Z,100.00
2022-12-24T00:26:11.336Z,100.00
2022-12-24T00:28:37.817Z,100.00
2022-12-24T00:31:12.488Z,100.00
2022-12-24T00:33:39.330Z,100.00
2022-12-24T00:36:06.401Z,100.00
2022-12-24T00:38:33.149Z,100.00
2022-12-24T00:41:01.810Z,100.00
2022-12-24T00:43:29.391Z,100.00
2022-12-24T00:45:56.395Z,100.00
2022-12-24T00:48:23.016Z,100.00
2022-12-24T00:50:52.493Z,100.00
2022-12-24T00:53:19.221Z,100.00
2022-12-24T00:55:45.707Z,100.00
2022-12-24T00:58:12.208Z,100.00
2022-12-24T01:00:38.675Z,100.00
2022-12-24T01:03:05.297Z,100.00
2022-12-24T01:05:31.888Z,100.00
2022-12-24T01:07:58.396Z,100.00
2022-12-24T01:10:24.953Z,100.00
2022-12-24T01:12:51.460Z,100.00
2022-12-24T01:15:18.099Z,100.00
2022-12-24T01:17:44.596Z,100.00
2022-12-24T01:20:15.354Z,100.00
2022-12-24T01:22:42.047Z,100.00
2022-12-24T01:25:08.959Z,100.00
2022-12-24T01:27:35.426Z,100.00
2022-12-24T01:30:01.919Z,100.00
2022-12-24T01:32:28.388Z,100.00
2022-12-24T01:34:54.873Z,100.00
2022-12-24T01:37:21.321Z,100.00
2022-12-24T01:39:47.803Z,100.00
2022-12-24T01:42:39.664Z,100.00
2022-12-24T01:45:35.702Z,100.00
2022-12-24T01:48:02.183Z,100.00
2022-12-24T01:50:28.977Z,100.00
2022-12-24T01:52:55.704Z,100.00
2022-12-24T01:55:22.204Z,100.00
2022-12-24T01:57:53.370Z,100.00
2022-12-24T02:00:20.181Z,100.00
2022-12-24T02:02:50.849Z,100.00
2022-12-24T02:05:23.895Z,100.00
2022-12-24T02:07:50.623Z,100.00
2022-12-24T02:10:17.308Z,100.00
2022-12-24T02:12:44.511Z,100.00
2022-12-24T02:15:13.599Z,100.00
2022-12-24T02:17:58.790Z,100.00
2022-12-24T02:20:54.622Z,100.00
2022-12-24T02:23:36.266Z,100.00
2022-12-24T02:26:45.012Z,100.00
2022-12-24T02:29:49.112Z,100.00
2022-12-24T02:32:21.607Z,100.00
2022-12-24T02:34:52.982Z,100.00
2022-12-24T02:37:26.572Z,100.00
2022-12-24T02:40:02.013Z,100.00
2022-12-24T02:42:35.276Z,100.00
2022-12-24T02:45:17.051Z,100.00
2022-12-24T02:47:44.374Z,100.00
2022-12-24T02:50:14.489Z,100.00
2022-12-24T02:52:44.024Z,100.00
2022-12-24T02:55:35.518Z,100.00
2022-12-24T02:58:11.087Z,100.00
2022-12-24T03:01:17.119Z,100.00
2022-12-24T03:04:05.180Z,100.00
2022-12-24T03:06:44.245Z,100.00
2022-12-24T03:09:39.465Z,100.00
2022-12-24T03:12:23.482Z,100.00
2022-12-24T03:14:50.140Z,100.00
2022-12-24T03:17:18.287Z,100.00
2022-12-24T03:19:45.767Z,100.00
2022-12-24T03:22:13.540Z,100.00
2022-12-24T03:24:39.998Z,100.00
2022-12-24T03:27:07.061Z,100.00
2022-12-24T03:29:33.610Z,100.00
2022-12-24T03:32:02.189Z,100.00
2022-12-24T03:34:28.771Z,100.00
2022-12-24T03:36:55.822Z,100.00
2022-12-24T03:39:22.967Z,100.00
2022-12-24T03:41:49.481Z,100.00
2022-12-24T03:44:15.967Z,100.00
2022-12-24T03:46:42.487Z,100.00
2022-12-24T03:49:08.975Z,100.00
2022-12-24T03:51:35.475Z,100.00
2022-12-24T03:54:02.171Z,100.00
2022-12-24T03:56:28.706Z,100.00
2022-12-24T03:58:55.260Z,100.00
2022-12-24T04:01:21.819Z,100.00
2022-12-24T04:03:48.420Z,100.00
2022-12-24T04:06:16.024Z,100.00
2022-12-24T04:08:42.516Z,100.00
2022-12-24T04:11:10.913Z,100.00
2022-12-24T04:13:37.716Z,100.00
2022-12-24T04:16:06.725Z,100.00
2022-12-24T04:18:33.749Z,100.00
2022-12-24T04:21:00.279Z,100.00
2022-12-24T04:23:26.780Z,100.00
2022-12-24T04:25:53.355Z,100.00
2022-12-24T04:28:19.820Z,100.00
2022-12-24T04:30:46.327Z,100.00
2022-12-24T04:33:12.818Z,100.00
2022-12-24T04:35:42.555Z,100.00
2022-12-24T04:38:09.982Z,100.00
2022-12-24T04:40:36.495Z,100.00
2022-12-24T04:43:03.036Z,100.00
2022-12-24T04:45:29.571Z,100.00
2022-12-24T04:47:56.065Z,100.00
2022-12-24T04:50:22.537Z,100.00
2022-12-24T04:52:48.990Z,100.00
2022-12-24T04:55:15.485Z,100.00
2022-12-24T04:57:41.980Z,100.00
2022-12-24T05:00:09.184Z,100.00
2022-12-24T05:02:35.909Z,100.00
2022-12-24T05:05:03.288Z,100.00
2022-12-24T05:07:29.792Z,100.00
2022-12-24T05:09:56.435Z,100.00
2022-12-24T05:12:23.457Z,100.00
2022-12-24T05:14:49.903Z,100.00
2022-12-24T05:17:16.432Z,100.00
2022-12-24T05:19:43.035Z,100.00
2022-12-24T05:22:28.165Z,100.00
2022-12-24T05:25:13.215Z,100.00
2022-12-24T05:27:39.822Z,100.00
2022-12-24T05:30:07.034Z,100.00
2022-12-24T05:32:33.507Z,100.00
2022-12-24T05:35:00.076Z,100.00
2022-12-24T05:37:26.593Z,100.00
2022-12-24T05:39:53.048Z,100.00
2022-12-24T05:42:19.556Z,100.00
2022-12-24T05:44:46.024Z,100.00
2022-12-24T05:47:12.508Z,100.00
2022-12-24T05:49:38.958Z,100.00
2022-12-24T05:52:05.463Z,100.00
2022-12-24T05:54:31.930Z,100.00
2022-12-24T05:56:58.389Z,100.00
2022-12-24T05:59:24.856Z,100.00
2022-12-24T06:01:51.373Z,100.00
2022-12-24T06:04:20.488Z,100.00
2022-12-24T06:06:51.152Z,100.00
2022-12-24T06:09:17.637Z,100.00
2022-12-24T06:11:44.212Z,100.00
2022-12-24T06:14:10.779Z,100.00
2022-12-24T06:16:37.277Z,100.00
2022-12-24T06:19:03.818Z,100.00
2022-12-24T06:21:30.673Z,100.00
2022-12-24T06:23:57.184Z,100.00
2022-12-24T06:26:23.857Z,100.00
2022-12-24T06:28:51.214Z,100.00
2022-12-24T06:31:20.085Z,100.00
2022-12-24T06:33:46.792Z,100.00
2022-12-24T06:36:18.778Z,100.00
2022-12-24T06:38:46.714Z,100.00
2022-12-24T06:41:13.448Z,100.00
2022-12-24T06:43:40.241Z,100.00
2022-12-24T06:46:06.789Z,100.00
2022-12-24T06:48:33.288Z,100.00
2022-12-24T06:51:02.824Z,100.00
2022-12-24T06:53:29.526Z,100.00
2022-12-24T06:56:04.001Z,100.00
2022-12-24T06:58:30.794Z,100.00
2022-12-24T07:00:57.283Z,100.00
2022-12-24T07:03:23.863Z,100.00
2022-12-24T07:05:51.317Z,100.00
2022-12-24T07:08:17.794Z,100.00
2022-12-24T07:10:47.690Z,100.00
2022-12-24T07:13:19.143Z,100.00
2022-12-24T07:15:46.146Z,100.00
2022-12-24T07:18:12.841Z,100.00
2022-12-24T07:20:39.315Z,100.00
2022-12-24T07:23:05.798Z,100.00
2022-12-24T07:25:32.280Z,100.00
2022-12-24T07:27:58.769Z,100.00
2022-12-24T07:30:25.209Z,100.00
2022-12-24T07:32:51.897Z,100.00
2022-12-24T07:35:18.376Z,100.00
2022-12-24T07:37:44.888Z,100.00
2022-12-24T07:40:11.606Z,100.00
2022-12-24T07:42:38.084Z,100.00
2022-12-24T07:45:04.953Z,100.00
2022-12-24T07:47:31.439Z,100.00
2022-12-24T07:49:57.943Z,100.00
2022-12-24T07:52:24.479Z,100.00
2022-12-24T07:54:50.951Z,100.00
2022-12-24T07:57:17.514Z,100.00
2022-12-24T07:59:43.981Z,100.00
2022-12-24T08:02:18.211Z,100.00
2022-12-24T08:04:45.030Z,100.00
2022-12-24T08:07:11.622Z,100.00
2022-12-24T08:09:38.532Z,100.00
2022-12-24T08:12:05.198Z,100.00
2022-12-24T08:14:31.783Z,100.00
2022-12-24T08:16:58.546Z,100.00
2022-12-24T08:19:25.082Z,100.00
2022-12-24T08:21:51.656Z,100.00
2022-12-24T08:24:18.151Z,100.00
2022-12-24T08:26:44.645Z,100.00
2022-12-24T08:29:11.876Z,100.00
2022-12-24T08:31:38.652Z,100.00
2022-12-24T08:34:06.632Z,100.00
2022-12-24T08:36:34.109Z,100.00
2022-12-24T08:39:03.602Z,100.00
2022-12-24T08:41:31.444Z,100.00
2022-12-24T08:43:58.282Z,100.00
2022-12-24T08:46:24.922Z,100.00
2022-12-24T08:48:51.509Z,100.00
2022-12-24T08:51:19.292Z,100.00
2022-12-24T08:53:46.050Z,100.00
2022-12-24T08:56:12.987Z,100.00
2022-12-24T08:58:39.592Z,100.00
2022-12-24T09:01:15.140Z,100.00
2022-12-24T09:03:43.392Z,100.00
2022-12-24T09:06:10.565Z,100.00
2022-12-24T09:08:37.536Z,100.00
2022-12-24T09:11:18.037Z,100.00
2022-12-24T09:13:44.803Z,100.00
2022-12-24T09:16:11.854Z,100.00
2022-12-24T09:18:38.957Z,100.00
2022-12-24T09:21:11.498Z,100.00
2022-12-24T09:23:40.595Z,100.00
2022-12-24T09:26:09.578Z,100.00
2022-12-24T09:28:36.231Z,100.00
2022-12-24T09:31:04.556Z,100.00
2022-12-24T09:33:33.493Z,100.00
2022-12-24T09:36:00.159Z,100.00
2022-12-24T09:38:26.653Z,100.00
2022-12-24T09:40:55.116Z,100.00
2022-12-24T09:43:23.850Z,99.38
2022-12-24T09:46:00.735Z,99.25
2022-12-24T09:48:31.845Z,99.70
2022-12-24T09:51:06.127Z,99.90
2022-12-24T09:53:52.006Z,100.00
2022-12-24T09:56:25.185Z,100.00
2022-12-24T09:58:59.038Z,99.72
2022-12-24T10:01:25.744Z,98.64
2022-12-24T10:03:52.376Z,98.46
2022-12-24T10:06:33.837Z,98.04
2022-12-24T10:09:08.961Z,97.71
2022-12-24T10:11:44.058Z,97.54
2022-12-24T10:14:22.315Z,97.29
2022-12-24T10:17:01.842Z,97.20
2022-12-24T10:19:48.011Z,97.18
2022-12-24T10:22:38.814Z,96.34
2022-12-24T10:25:28.635Z,96.53
2022-12-24T10:27:56.071Z,96.14
2022-12-24T10:30:23.449Z,96.23
2022-12-24T10:32:52.138Z,95.71
2022-12-24T10:35:32.687Z,95.65
2022-12-24T10:38:00.174Z,95.41
2022-12-24T10:40:36.200Z,95.41
2022-12-24T10:43:11.825Z,95.40
2022-12-24T10:45:42.876Z,95.69
2022-12-24T10:48:16.685Z,95.14
2022-12-24T10:50:53.659Z,94.62
2022-12-24T10:53:40.999Z,93.69
2022-12-24T10:56:13.499Z,92.94
2022-12-24T10:58:45.388Z,93.26
2022-12-24T11:01:12.059Z,92.87
2022-12-24T11:03:39.101Z,93.20
2022-12-24T11:06:11.747Z,93.06
2022-12-24T11:08:42.980Z,93.83
2022-12-24T11:11:20.578Z,94.42
2022-12-24T11:13:56.851Z,93.97
2022-12-24T11:16:35.625Z,94.16
2022-12-24T11:19:04.298Z,94.08
2022-12-24T11:21:33.275Z,94.01
2022-12-24T11:24:14.700Z,94.27
2022-12-24T11:26:42.949Z,94.23
2022-12-24T11:29:20.658Z,93.78
2022-12-24T11:31:48.029Z,94.02
2022-12-24T11:34:29.491Z,94.20
2022-12-24T11:37:22.503Z,94.07
2022-12-24T11:40:00.511Z,94.27
2022-12-24T11:42:38.124Z,94.41
2022-12-24T11:45:26.916Z,94.85
2022-12-24T11:47:54.207Z,95.28
2022-12-24T11:50:35.630Z,95.72
2022-12-24T11:53:15.537Z,96.04
2022-12-24T11:55:45.376Z,95.56
2022-12-24T11:58:20.525Z,96.13
2022-12-24T12:00:48.186Z,96.01
2022-12-24T12:03:32.762Z,96.68
2022-12-24T12:06:01.848Z,96.16
2022-12-24T12:08:29.258Z,95.93
2022-12-24T12:10:58.388Z,96.39
2022-12-24T12:13:33.252Z,96.49
2022-12-24T12:16:12.201Z,96.65
2022-12-24T12:18:41.527Z,96.42
2022-12-24T12:21:14.680Z,96.98
2022-12-24T12:23:46.087Z,97.34
2022-12-24T12:26:24.379Z,97.49
2022-12-24T12:28:58.277Z,98.46
2022-12-24T12:31:32.605Z,98.59
2022-12-24T12:34:23.973Z,98.39
2022-12-24T12:36:57.592Z,98.07
2022-12-24T12:39:24.119Z,98.35
2022-12-24T12:41:53.510Z,98.72
2022-12-24T12:44:30.472Z,98.69
2022-12-24T12:47:02.994Z,98.53
2022-12-24T12:49:48.208Z,98.53
2022-12-24T12:52:32.800Z,98.94
2022-12-24T12:55:22.150Z,99.38
2022-12-24T12:57:53.697Z,98.61
2022-12-24T13:00:20.363Z,99.15
2022-12-24T13:03:05.093Z,98.90
2022-12-24T13:05:49.869Z,99.19
2022-12-24T13:08:44.096Z,99.26
2022-12-24T13:11:29.245Z,99.35
2022-12-24T13:13:55.643Z,99.37
2022-12-24T13:16:48.911Z,99.69
2022-12-24T13:19:53.629Z,99.87
2022-12-24T13:22:21.477Z,99.85
2022-12-24T13:24:55.465Z,100.00
2022-12-24T13:27:27.781Z,100.00
2022-12-24T13:30:09.772Z,100.00
2022-12-24T13:32:39.754Z,100.00
2022-12-24T13:35:21.565Z,100.00
2022-12-24T13:37:49.600Z,100.00
2022-12-24T13:40:24.402Z,100.00
2022-12-24T13:43:01.809Z,100.00
2022-12-24T13:45:32.055Z,100.00
2022-12-24T13:48:07.709Z,100.00
2022-12-24T13:50:58.354Z,100.00
2022-12-24T13:53:42.328Z,100.00
2022-12-24T13:56:16.743Z,100.00
2022-12-24T13:58:46.410Z,100.00
2022-12-24T14:01:15.955Z,100.00
2022-12-24T14:03:44.271Z,100.00
2022-12-24T14:06:13.580Z,100.00
2022-12-24T14:08:43.129Z,100.00
2022-12-24T14:11:18.091Z,100.00
2022-12-24T14:13:44.561Z,100.00
2022-12-24T14:16:15.176Z,100.00
2022-12-24T14:18:44.681Z,100.00
2022-12-24T14:21:26.078Z,100.00
2022-12-24T14:23:55.467Z,100.00
2022-12-24T14:26:25.728Z,100.00
2022-12-24T14:29:06.220Z,100.00
2022-12-24T14:31:33.428Z,100.00
2022-12-24T14:34:12.814Z,100.00
2022-12-24T14:36:40.564Z,100.00
2022-12-24T14:39:09.224Z,100.00
2022-12-24T14:41:57.824Z,100.00
2022-12-24T14:44:40.005Z,100.00
2022-12-24T14:47:22.549Z,100.00
2022-12-24T14:50:30.171Z,100.00
2022-12-24T14:53:11.937Z,100.00
2022-12-24T14:55:46.010Z,100.00
2022-12-24T14:58:24.410Z,100.00
2022-12-24T15:00:52.562Z,100.00
2022-12-24T15:03:24.455Z,100.00
2022-12-24T15:06:03.294Z,100.00
2022-12-24T15:08:33.057Z,100.00
2022-12-24T15:11:04.288Z,100.00
2022-12-24T15:13:37.296Z,100.00
2022-12-24T15:16:08.324Z,100.00
2022-12-24T15:18:38.707Z,100.00
2022-12-24T15:21:08.004Z,100.00
2022-12-24T15:23:37.139Z,100.00
2022-12-24T15:26:39.754Z,100.00
2022-12-24T15:29:22.513Z,100.00
2022-12-24T15:31:55.645Z,100.00
2022-12-24T15:34:36.419Z,100.00
2022-12-24T15:37:21.815Z,100.00
2022-12-24T15:40:17.743Z,100.00
2022-12-24T15:42:44.437Z,100.00
2022-12-24T15:45:27.601Z,100.00
2022-12-24T15:47:59.873Z,100.00
2022-12-24T15:50:32.196Z,100.00
2022-12-24T15:53:20.513Z,100.00
2022-12-24T15:56:01.621Z,100.00
2022-12-24T15:58:30.972Z,100.00
2022-12-24T16:01:13.902Z,100.00
2022-12-24T16:03:42.715Z,100.00
2022-12-24T16:06:11.738Z,100.00
2022-12-24T16:08:40.211Z,100.00
2022-12-24T16:11:13.116Z,100.00
2022-12-24T16:13:44.413Z,100.00
2022-12-24T16:16:15.849Z,100.00
2022-12-24T16:18:51.434Z,100.00
2022-12-24T16:21:25.348Z,100.00
2022-12-24T16:23:54.581Z,100.00
2022-12-24T16:26:21.152Z,100.00
2022-12-24T16:28:47.916Z,100.00
2022-12-24T16:31:19.949Z,100.00
2022-12-24T16:33:47.004Z,100.00
2022-12-24T16:36:13.574Z,100.00
2022-12-24T16:38:58.731Z,100.00
2022-12-24T16:41:25.235Z,100.00
2022-12-24T16:43:51.799Z,100.00
2022-12-24T16:46:18.593Z,100.00
2022-12-24T16:48:48.004Z,100.00
2022-12-24T16:51:14.616Z,100.00
2022-12-24T16:53:41.435Z,100.00
2022-12-24T16:56:07.995Z,100.00
2022-12-24T16:58:34.998Z,100.00
2022-12-24T17:01:06.947Z,100.00
2022-12-24T17:03:33.763Z,100.00
2022-12-24T17:06:04.703Z,100.00
2022-12-24T17:08:31.262Z,100.00
2022-12-24T17:10:57.785Z,100.00
2022-12-24T17:13:24.541Z,100.00
2022-12-24T17:15:51.525Z,100.00
2022-12-24T17:18:18.228Z,100.00
2022-12-24T17:20:44.899Z,100.00
2022-12-24T17:23:11.489Z,100.00
2022-12-24T17:25:38.010Z,100.00
2022-12-24T17:28:04.699Z,100.00
2022-12-24T17:30:31.484Z,100.00
2022-12-24T17:32:58.032Z,100.00
2022-12-24T17:35:24.572Z,100.00
2022-12-24T17:37:51.267Z,100.00
2022-12-24T17:40:17.892Z,100.00
2022-12-24T17:42:44.453Z,100.00
2022-12-24T17:45:11.142Z,100.00
2022-12-24T17:47:37.779Z,100.00
2022-12-24T17:50:04.728Z,100.00
2022-12-24T17:52:31.446Z,100.00
2022-12-24T17:54:58.428Z,100.00
2022-12-24T17:57:24.964Z,100.00
2022-12-24T17:59:51.478Z,100.00
2022-12-24T18:02:18.126Z,100.00
2022-12-24T18:04:44.794Z,100.00
2022-12-24T18:07:11.301Z,100.00
2022-12-24T18:09:37.896Z,100.00
2022-12-24T18:12:04.867Z,100.00
2022-12-24T18:14:31.341Z,100.00
2022-12-24T18:16:57.984Z,100.00
2022-12-24T18:19:24.517Z,100.00
2022-12-24T18:21:51.094Z,100.00
2022-12-24T18:24:18.107Z,100.00
2022-12-24T18:26:48.461Z,100.00
2022-12-24T18:29:16.449Z,100.00
2022-12-24T18:31:43.139Z,100.00
2022-12-24T18:34:12.647Z,100.00
2022-12-24T18:36:39.580Z,100.00
2022-12-24T18:39:06.314Z,100.00
2022-12-24T18:41:32.840Z,100.00
2022-12-24T18:43:59.774Z,100.00
2022-12-24T18:46:30.687Z,100.00
2022-12-24T18:48:59.553Z,100.00
2022-12-24T18:51:29.407Z,100.00
2022-12-24T18:53:56.121Z,100.00
2022-12-24T18:56:25.949Z,100.00
2022-12-24T18:58:54.416Z,100.00
2022-12-24T19:01:32.543Z,100.00
2022-12-24T19:04:01.097Z,100.00
2022-12-24T19:06:27.996Z,100.00
2022-12-24T19:08:58.439Z,100.00
2022-12-24T19:11:28.096Z,100.00
2022-12-24T19:13:54.676Z,100.00
2022-12-24T19:16:22.035Z,100.00
2022-12-24T19:18:49.071Z,100.00
2022-12-24T19:21:17.314Z,100.00
2022-12-24T19:23:45.001Z,100.00
2022-12-24T19:26:12.920Z,100.00
2022-12-24T19:28:39.534Z,100.00
2022-12-24T19:31:08.682Z,100.00
2022-12-24T19:33:45.281Z,100.00
2022-12-24T19:36:15.659Z,100.00
2022-12-24T19:38:42.416Z,100.00
2022-12-24T19:41:16.385Z,100.00
2022-12-24T19:43:45.021Z,100.00
2022-12-24T19:46:14.537Z,100.00
2022-12-24T19:48:41.913Z,100.00
2022-12-24T19:51:10.696Z,100.00
2022-12-24T19:53:38.350Z,100.00
2022-12-24T19:56:06.033Z,100.00
2022-12-24T19:58:32.871Z,100.00
2022-12-24T20:01:15.985Z,100.00
2022-12-24T20:03:44.444Z,100.00
2022-12-24T20:06:11.609Z,100.00
2022-12-24T20:08:38.696Z,100.00
2022-12-24T20:11:07.577Z,100.00
2022-12-24T20:13:35.125Z,100.00
2022-12-24T20:16:06.875Z,100.00
2022-12-24T20:18:33.951Z,100.00
2022-12-24T20:21:02.114Z,99.99
2022-12-24T20:23:29.283Z,100.00
2022-12-24T20:26:03.822Z,99.86
2022-12-24T20:28:32.262Z,98.70
2022-12-24T20:30:58.750Z,98.78
2022-12-24T20:33:25.720Z,99.43
2022-12-24T20:35:52.443Z,99.73
2022-12-24T20:38:19.212Z,99.75
2022-12-24T20:40:46.376Z,99.50
2022-12-24T20:43:13.287Z,99.94
2022-12-24T20:45:39.887Z,99.90
2022-12-24T20:48:06.808Z,100.00
2022-12-24T20:50:33.628Z,100.00
2022-12-24T20:53:00.392Z,100.00
2022-12-24T20:55:27.039Z,100.00
2022-12-24T20:57:53.672Z,100.00
2022-12-24T21:00:20.959Z,100.00
2022-12-24T21:02:47.519Z,100.00
2022-12-24T21:05:14.354Z,100.00
2022-12-24T21:07:43.139Z,100.00
2022-12-24T21:10:11.177Z,100.00
2022-12-24T21:12:50.038Z,100.00
2022-12-24T21:15:23.518Z,100.00
2022-12-24T21:17:50.677Z,100.00
2022-12-24T21:20:17.847Z,100.00
2022-12-24T21:22:44.472Z,100.00
2022-12-24T21:25:12.376Z,100.00
2022-12-24T21:27:39.388Z,100.00
2022-12-24T21:30:08.255Z,100.00
2022-12-24T21:32:35.750Z,100.00
2022-12-24T21:35:02.730Z,100.00
2022-12-24T21:37:29.365Z,100.00
2022-12-24T21:39:55.924Z,100.00
2022-12-24T21:42:22.444Z,100.00
2022-12-24T21:44:48.920Z,100.00
2022-12-24T21:47:15.403Z,100.00
2022-12-24T21:50:00.479Z,100.00
2022-12-24T21:52:27.056Z,100.00
2022-12-24T21:54:53.553Z,100.00
2022-12-24T21:57:38.652Z,100.00
2022-12-24T22:00:24.600Z,100.00
2022-12-24T22:02:56.228Z,100.00
2022-12-24T22:05:24.655Z,100.00
2022-12-24T22:08:09.890Z,100.00
2022-12-24T22:10:56.642Z,100.00
2022-12-24T22:13:24.164Z,100.00
2022-12-24T22:15:52.315Z,100.00
2022-12-24T22:18:21.446Z,100.00
2022-12-24T22:20:48.440Z,100.00
2022-12-24T22:23:15.599Z,100.00
2022-12-24T22:25:43.906Z,100.00
2022-12-24T22:28:11.116Z,100.00
2022-12-24T22:30:42.869Z,100.00
2022-12-24T22:33:10.411Z,100.00
2022-12-24T22:35:38.772Z,100.00
2022-12-24T22:38:05.789Z,100.00
2022-12-24T22:40:32.271Z,100.00
2022-12-24T22:42:58.852Z,100.00
2022-12-24T22:45:25.526Z,100.00
2022-12-24T22:47:52.176Z,100.00
2022-12-24T22:50:18.713Z,100.00
2022-12-24T22:52:45.271Z,100.00
2022-12-24T22:55:11.833Z,100.00
2022-12-24T22:57:38.359Z,100.00
2022-12-24T23:00:15.239Z,100.00
2022-12-24T23:02:41.892Z,100.00
2022-12-24T23:05:13.441Z,100.00
2022-12-24T23:07:40.038Z,100.00
2022-12-24T23:10:07.580Z,100.00
2022-12-24T23:12:52.743Z,99.54
2022-12-24T23:15:19.236Z,99.55
2022-12-24T23:17:48.797Z,99.33
2022-12-24T23:20:15.829Z,97.89
2022-12-24T23:22:42.298Z,97.75
2022-12-24T23:25:09.345Z,97.50
2022-12-24T23:27:35.900Z,97.62
2022-12-24T23:30:02.474Z,97.33
2022-12-24T23:32:28.980Z,96.97
2022-12-24T23:34:55.528Z,97.48
2022-12-24T23:37:22.060Z,97.50
2022-12-24T23:39:48.575Z,97.22
2022-12-24T23:42:15.237Z,97.51
2022-12-24T23:44:41.770Z,96.79
2022-12-24T23:47:08.423Z,96.69
2022-12-24T23:49:35.296Z,97.02
2022-12-24T23:52:01.881Z,97.20
2022-12-24T23:54:28.479Z,96.60
2022-12-24T23:56:55.017Z,96.95
2022-12-24T23:59:21.709Z,96.89
